Terminal Aerodrome Forecast
Issued by NWS

Home | Current Version | Previous Version | Graphics & Text | Print | Product List | Glossary On
Versions: 1 2 3 4 5 6 7 8 9 10 11 12 13 14 15 16 17
000
FTUS43 KABR 242324
TAFMBG
TAF
KMBG 242324Z 2500/2524 30013G20KT P6SM SCT250
     FM250200 31008KT P6SM SKC
     FM251500 32012KT P6SM BKN100=

USA.gov is the U.S. government's official web portal to all federal, state and local government web resources and services.